Time;durP1;ratioP1;P1;durP2;ratioP2;P2;SDS_P1;SDS_P2;PMS_P1;PMS_P2;Temp;Humidity;BMP_temperature;BMP_pressure;BME280_temperature;BME280_humidity;BME280_pressure;Samples;Min_cycle;Max_cycle;Signal;HPM_P1;HPM_P2
2020/12/23 00:01:19;;;;;;;0.35;0.35;;;11.60;78.00;;;;;;5145373;27;20023;-43
2020/12/23 00:03:45;;;;;;;0.40;0.40;;;11.70;78.30;;;;;;5129238;27;20034;-46
2020/12/23 00:06:11;;;;;;;0.65;0.50;;;11.70;78.20;;;;;;5126674;27;20051;-42
2020/12/23 00:08:37;;;;;;;0.52;0.35;;;11.70;78.20;;;;;;5124664;28;20026;-43
2020/12/23 00:11:04;;;;;;;0.40;0.40;;;11.60;78.10;;;;;;5124291;28;20020;-42
2020/12/23 00:13:30;;;;;;;0.47;0.40;;;11.60;78.20;;;;;;5124694;28;20108;-46
2020/12/23 00:15:56;;;;;;;0.63;0.40;;;11.60;78.30;;;;;;5124768;28;20027;-45
2020/12/23 00:18:22;;;;;;;0.90;0.57;;;11.60;78.00;;;;;;5124351;28;20103;-47
2020/12/23 00:20:49;;;;;;;1.05;0.50;;;11.60;78.30;;;;;;5142687;27;20107;-45
2020/12/23 00:23:15;;;;;;;0.75;0.50;;;11.60;78.60;;;;;;5144308;27;20034;-45
2020/12/23 00:25:41;;;;;;;0.40;0.40;;;11.60;78.40;;;;;;5126421;27;20643;-45
2020/12/23 00:28:07;;;;;;;1.67;0.40;;;11.60;78.50;;;;;;5124473;28;20027;-43
2020/12/23 00:30:33;;;;;;;0.50;0.50;;;11.50;78.00;;;;;;5124489;28;20077;-45
2020/12/23 00:32:59;;;;;;;0.50;0.50;;;11.50;78.20;;;;;;5134395;27;20061;-45
2020/12/23 00:35:25;;;;;;;0.40;0.40;;;11.50;78.40;;;;;;5144941;27;20057;-45
2020/12/23 00:37:52;;;;;;;0.80;0.50;;;11.50;77.90;;;;;;5125579;27;20031;-45
2020/12/23 00:40:18;;;;;;;1.00;0.60;;;11.50;77.90;;;;;;5124284;28;20061;-44
2020/12/23 00:42:44;;;;;;;1.05;0.47;;;11.50;77.60;;;;;;5124099;28;20030;-45
2020/12/23 00:45:10;;;;;;;0.63;0.40;;;11.50;77.70;;;;;;5124174;28;20082;-45
2020/12/23 00:47:36;;;;;;;1.55;0.90;;;11.40;77.10;;;;;;5125030;28;20043;-46
2020/12/23 00:50:03;;;;;;;0.93;0.50;;;11.40;77.30;;;;;;5132645;27;20087;-45
2020/12/23 00:52:29;;;;;;;0.53;0.50;;;11.40;76.90;;;;;;5123382;28;20019;-44
2020/12/23 00:54:55;;;;;;;0.68;0.50;;;11.40;76.70;;;;;;5123438;28;20035;-45
2020/12/23 00:57:21;;;;;;;0.40;0.40;;;11.40;76.70;;;;;;5123767;28;20479;-43
2020/12/23 00:59:47;;;;;;;0.70;0.40;;;11.30;76.70;;;;;;5123844;28;20032;-45
2020/12/23 01:02:13;;;;;;;0.80;0.50;;;11.30;76.50;;;;;;5127432;28;20058;-45
2020/12/23 01:04:40;;;;;;;0.75;0.43;;;11.30;76.60;;;;;;5144356;27;20030;-45
2020/12/23 01:07:06;;;;;;;0.73;0.50;;;11.30;77.00;;;;;;5131678;27;20060;-46
2020/12/23 01:09:32;;;;;;;0.75;0.60;;;11.30;76.50;;;;;;5123941;28;20024;-45
2020/12/23 01:11:58;;;;;;;0.98;0.50;;;11.30;76.20;;;;;;5123395;28;20030;-45
2020/12/23 01:14:24;;;;;;;0.57;0.50;;;11.20;76.20;;;;;;5123616;28;20031;-45
2020/12/23 01:16:50;;;;;;;2.58;0.60;;;11.20;76.10;;;;;;5123636;28;20503;-45
2020/12/23 01:19:16;;;;;;;0.60;0.47;;;11.20;76.10;;;;;;5128832;28;20062;-45
2020/12/23 01:21:45;;;;;;;0.57;0.40;;;11.20;76.10;;;;;;5144128;28;20066;-45
2020/12/23 01:24:12;;;;;;;0.77;0.47;;;11.20;76.10;;;;;;5144177;28;20031;-45
2020/12/23 01:26:38;;;;;;;0.40;0.40;;;11.20;76.10;;;;;;5144152;28;20054;-46
2020/12/23 01:29:04;;;;;;;0.35;0.35;;;11.20;76.20;;;;;;5144154;28;20012;-45
2020/12/23 01:31:30;;;;;;;0.75;0.47;;;11.10;76.00;;;;;;5144079;28;20031;-45
2020/12/23 01:33:56;;;;;;;0.73;0.57;;;11.10;76.10;;;;;;5106893;28;20042;-44
2020/12/23 01:36:23;;;;;;;1.05;0.43;;;11.10;76.20;;;;;;5116936;28;20362;-45
2020/12/23 01:38:49;;;;;;;1.42;0.60;;;11.10;76.10;;;;;;5103132;28;20059;-45
2020/12/23 01:41:15;;;;;;;0.60;0.47;;;11.10;76.20;;;;;;5118254;28;20492;-43
2020/12/23 01:43:55;;;;;;;1.00;0.50;;;11.10;76.30;;;;;;5123085;28;20024;-45
2020/12/23 01:46:41;;;;;;;1.70;0.55;;;11.00;76.20;;;;;;5106308;28;20016;-47
2020/12/23 01:49:09;;;;;;;0.43;0.40;;;11.00;76.30;;;;;;5126912;28;20027;-45
2020/12/23 01:51:36;;;;;;;2.13;0.47;;;11.00;76.50;;;;;;5143992;28;20039;-45
2020/12/23 01:54:02;;;;;;;1.10;0.52;;;11.00;76.30;;;;;;5125067;28;20046;-45
2020/12/23 01:56:30;;;;;;;0.38;0.38;;;11.00;76.30;;;;;;5143751;28;20095;-46
2020/12/23 01:58:56;;;;;;;0.52;0.50;;;11.00;76.30;;;;;;5143755;28;20036;-44
2020/12/23 02:01:24;;;;;;;1.50;0.57;;;11.00;76.20;;;;;;5143656;28;20025;-45
2020/12/23 02:03:50;;;;;;;0.60;0.60;;;10.90;76.30;;;;;;5104058;28;20039;-45
2020/12/23 02:06:16;;;;;;;0.50;0.40;;;10.90;76.30;;;;;;5104912;28;20031;-44
2020/12/23 02:08:43;;;;;;;0.47;0.47;;;10.90;76.30;;;;;;5108329;28;20024;-45
2020/12/23 02:11:10;;;;;;;0.70;0.50;;;10.90;76.40;;;;;;5108752;28;20019;-45
2020/12/23 02:13:46;;;;;;;0.43;0.43;;;10.90;76.30;;;;;;5126756;27;20035;-45
2020/12/23 02:16:13;;;;;;;0.55;0.55;;;10.90;76.30;;;;;;5126715;28;20024;-45
2020/12/23 02:18:39;;;;;;;1.65;0.70;;;10.90;76.30;;;;;;5126659;28;20857;-45
2020/12/23 02:21:06;;;;;;;0.80;0.52;;;10.90;76.40;;;;;;5088154;28;20048;-44
2020/12/23 02:23:32;;;;;;;1.07;0.40;;;10.80;76.30;;;;;;5106014;28;20138;-45
2020/12/23 02:25:58;;;;;;;1.00;0.63;;;10.80;76.30;;;;;;5106063;28;20485;-45
2020/12/23 02:28:24;;;;;;;0.90;0.57;;;10.80;76.30;;;;;;5106181;28;20036;-45
2020/12/23 02:30:59;;;;;;;0.60;0.55;;;10.80;76.30;;;;;;5106046;28;20095;-45
2020/12/23 02:33:25;;;;;;;1.63;0.43;;;10.80;76.40;;;;;;5131548;27;20024;-45
2020/12/23 02:35:51;;;;;;;0.77;0.63;;;10.80;76.40;;;;;;5126267;28;20019;-45
2020/12/23 02:38:17;;;;;;;0.98;0.60;;;10.70;76.40;;;;;;5126385;28;20040;-45
2020/12/23 02:40:43;;;;;;;0.95;0.50;;;10.70;76.40;;;;;;5126121;28;20022;-45
2020/12/23 02:43:09;;;;;;;0.90;0.50;;;10.70;76.40;;;;;;5125828;28;20028;-45
2020/12/23 02:45:36;;;;;;;0.80;0.47;;;10.70;76.40;;;;;;5126119;28;20092;-45
2020/12/23 02:48:02;;;;;;;2.60;0.60;;;10.70;76.50;;;;;;5126063;28;20028;-45
2020/12/23 02:50:28;;;;;;;0.60;0.50;;;10.70;76.50;;;;;;5141303;27;20109;-46
2020/12/23 02:52:54;;;;;;;1.65;0.70;;;10.70;76.50;;;;;;5146405;27;20027;-45
2020/12/23 02:55:20;;;;;;;1.05;0.70;;;10.60;76.50;;;;;;5146500;27;20515;-45
2020/12/23 02:57:46;;;;;;;1.20;0.60;;;10.60;76.50;;;;;;5143430;27;20074;-45
2020/12/23 03:00:12;;;;;;;1.67;0.50;;;10.60;76.60;;;;;;5125979;28;20032;-45
2020/12/23 03:02:39;;;;;;;0.80;0.70;;;10.60;76.40;;;;;;5125719;28;20034;-44
2020/12/23 03:05:05;;;;;;;0.57;0.50;;;10.60;76.50;;;;;;5125771;28;20084;-44
2020/12/23 03:07:31;;;;;;;2.55;0.60;;;10.50;76.50;;;;;;5125942;28;20023;-45
2020/12/23 03:09:57;;;;;;;0.68;0.43;;;10.50;76.50;;;;;;5125608;28;20034;-45
2020/12/23 03:12:23;;;;;;;0.60;0.50;;;10.50;76.50;;;;;;5125800;28;20047;-44
2020/12/23 03:14:49;;;;;;;1.20;0.70;;;10.50;76.50;;;;;;5125372;28;20104;-45
2020/12/23 03:17:16;;;;;;;0.63;0.50;;;10.50;76.60;;;;;;5125519;28;20083;-45
2020/12/23 03:19:42;;;;;;;0.80;0.60;;;10.50;76.50;;;;;;5133933;27;20035;-45
2020/12/23 03:22:08;;;;;;;0.77;0.50;;;10.50;76.50;;;;;;5145972;27;20051;-45
2020/12/23 03:24:34;;;;;;;1.13;0.70;;;10.50;76.50;;;;;;5145921;27;20042;-44
2020/12/23 03:27:00;;;;;;;1.20;0.70;;;10.40;76.50;;;;;;5145875;27;20031;-44
2020/12/23 03:29:26;;;;;;;1.77;0.68;;;10.40;76.60;;;;;;5145793;27;20045;-44
2020/12/23 03:31:53;;;;;;;0.70;0.52;;;10.40;76.50;;;;;;5145003;27;20421;-44
2020/12/23 03:34:19;;;;;;;1.20;0.70;;;10.40;76.50;;;;;;5124759;28;20515;-45
2020/12/23 03:36:45;;;;;;;1.02;0.63;;;10.40;76.50;;;;;;5125030;28;20035;-44
2020/12/23 03:39:11;;;;;;;1.85;0.52;;;10.40;76.60;;;;;;5125129;28;20020;-44
2020/12/23 03:41:37;;;;;;;0.98;0.73;;;10.30;76.50;;;;;;5124916;28;20020;-43
2020/12/23 03:44:03;;;;;;;1.23;0.60;;;10.30;76.60;;;;;;5124798;28;20034;-44
2020/12/23 03:46:29;;;;;;;1.30;0.80;;;10.30;76.60;;;;;;5124989;28;20024;-44
2020/12/23 03:48:56;;;;;;;2.40;0.80;;;10.30;76.60;;;;;;5127234;27;20047;-44
2020/12/23 03:51:22;;;;;;;2.03;0.80;;;10.30;76.60;;;;;;5133587;27;20028;-44
2020/12/23 03:53:48;;;;;;;1.95;0.70;;;10.30;76.60;;;;;;5124500;28;20142;-44
2020/12/23 03:56:14;;;;;;;0.90;0.70;;;10.20;76.60;;;;;;5124639;28;20034;-44
2020/12/23 03:58:40;;;;;;;1.10;0.80;;;10.20;76.50;;;;;;5124701;28;20063;-44
2020/12/23 04:01:06;;;;;;;1.05;0.70;;;10.20;76.60;;;;;;5124744;28;20031;-45
2020/12/23 04:03:32;;;;;;;1.73;0.80;;;10.20;76.60;;;;;;5124609;28;20058;-44
2020/12/23 04:05:59;;;;;;;2.00;0.93;;;10.20;76.70;;;;;;5103064;28;20024;-44
2020/12/23 04:08:25;;;;;;;1.25;0.70;;;10.20;76.70;;;;;;5104037;28;20089;-44
2020/12/23 04:10:51;;;;;;;1.00;0.70;;;10.10;76.60;;;;;;5104047;28;20024;-44
2020/12/23 04:13:17;;;;;;;1.35;0.70;;;10.10;76.60;;;;;;5104342;28;20020;-44
2020/12/23 04:15:43;;;;;;;1.52;0.90;;;10.10;76.70;;;;;;5142145;27;20047;-43
2020/12/23 04:18:11;;;;;;;1.33;0.70;;;10.10;76.70;;;;;;5144807;27;20841;-45
2020/12/23 04:20:37;;;;;;;;;;;10.10;76.70;;;;;;5128352;27;20120;-44
2020/12/23 04:23:03;;;;;;;1.20;0.73;;;10.10;76.70;;;;;;5124303;28;19903;-44
2020/12/23 04:25:29;;;;;;;2.03;0.90;;;10.10;76.80;;;;;;5123777;28;20035;-44
2020/12/23 04:27:55;;;;;;;1.20;0.95;;;10.10;76.70;;;;;;5123909;28;20027;-44
2020/12/23 04:30:21;;;;;;;1.13;0.90;;;10.00;76.70;;;;;;5123332;28;20053;-44
2020/12/23 04:32:47;;;;;;;1.08;0.70;;;10.00;76.70;;;;;;5132405;27;20035;-44
2020/12/23 04:35:13;;;;;;;1.08;0.80;;;10.00;76.70;;;;;;5124899;27;20077;-45
2020/12/23 04:37:39;;;;;;;1.50;0.90;;;10.00;76.80;;;;;;5123829;28;20030;-44
2020/12/23 04:40:06;;;;;;;1.23;1.13;;;10.00;76.80;;;;;;5123735;28;20039;-43
2020/12/23 04:42:35;;;;;;;0.85;0.68;;;10.00;76.80;;;;;;5123651;28;20083;-44
2020/12/23 04:45:02;;;;;;;1.58;1.10;;;10.00;76.80;;;;;;5123688;28;20030;-44
2020/12/23 04:47:29;;;;;;;1.10;0.80;;;9.90;76.80;;;;;;5105347;28;20073;-43
2020/12/23 04:49:57;;;;;;;1.73;1.10;;;9.90;76.70;;;;;;5105616;28;20039;-44
2020/12/23 04:52:31;;;;;;;1.27;1.00;;;9.90;76.80;;;;;;5123816;28;20026;-44
2020/12/23 04:54:58;;;;;;;1.65;1.10;;;9.90;76.70;;;;;;5107244;27;20610;-43
2020/12/23 04:57:25;;;;;;;1.13;0.90;;;9.90;76.80;;;;;;5124227;28;20661;-44
2020/12/23 04:59:51;;;;;;;0.77;0.73;;;9.90;76.90;;;;;;5105394;28;20049;-45
2020/12/23 05:02:17;;;;;;;2.55;1.20;;;9.80;76.80;;;;;;5123589;28;20038;-45
2020/12/23 05:04:43;;;;;;;1.55;1.02;;;9.80;76.80;;;;;;5123115;28;20028;-44
2020/12/23 05:07:09;;;;;;;1.13;1.00;;;9.80;76.80;;;;;;5110588;28;20095;-43
2020/12/23 05:09:36;;;;;;;1.50;0.98;;;9.80;76.80;;;;;;5103147;28;20032;-43
2020/12/23 05:12:02;;;;;;;1.10;0.90;;;9.80;76.90;;;;;;5117923;28;20027;-44
2020/12/23 05:14:28;;;;;;;3.00;0.95;;;9.80;76.90;;;;;;5123324;28;20051;-43
2020/12/23 05:16:55;;;;;;;2.63;1.00;;;9.80;76.90;;;;;;5123350;28;20035;-44
2020/12/23 05:19:21;;;;;;;1.83;1.00;;;9.80;76.90;;;;;;5129029;28;20146;-43
2020/12/23 05:21:47;;;;;;;1.52;0.98;;;9.70;76.90;;;;;;5143715;28;20095;-43
2020/12/23 05:24:14;;;;;;;1.65;0.98;;;9.70;76.90;;;;;;5143731;28;20050;-44
2020/12/23 05:26:42;;;;;;;2.23;1.10;;;9.70;76.90;;;;;;5143587;28;20113;-44
2020/12/23 05:29:10;;;;;;;1.50;0.93;;;9.70;76.90;;;;;;5143807;28;20019;-44
2020/12/23 05:31:37;;;;;;;1.15;0.73;;;9.70;76.90;;;;;;5143745;28;20117;-43
2020/12/23 05:34:04;;;;;;;0.93;0.77;;;9.70;77.00;;;;;;5124402;28;20167;-44
2020/12/23 05:36:30;;;;;;;;;;;9.60;76.90;;;;;;5123483;28;20027;-43
2020/12/23 05:38:57;;;;;;;1.05;0.80;;;9.60;76.90;;;;;;5122892;28;19911;-43
2020/12/23 05:41:23;;;;;;;0.98;0.88;;;9.60;77.00;;;;;;5106481;28;20024;-43
2020/12/23 05:43:49;;;;;;;1.67;1.30;;;9.60;77.00;;;;;;5092012;28;20028;-43
2020/12/23 05:46:15;;;;;;;2.08;1.10;;;9.60;77.00;;;;;;5127124;28;20625;-43
2020/12/23 05:48:42;;;;;;;1.98;1.10;;;9.60;77.00;;;;;;5127552;28;20769;-43
2020/12/23 05:51:09;;;;;;;2.50;1.10;;;9.60;77.00;;;;;;5147812;27;20054;-43
2020/12/23 05:53:36;;;;;;;1.02;0.90;;;9.50;76.90;;;;;;5147731;27;20037;-43
2020/12/23 05:56:03;;;;;;;1.83;1.08;;;9.50;77.00;;;;;;5147469;27;20031;-43
2020/12/23 05:58:34;;;;;;;1.48;0.90;;;9.50;77.00;;;;;;5147591;27;20737;-43
2020/12/23 06:01:02;;;;;;;2.10;1.10;;;9.50;77.00;;;;;;5147666;27;20023;-43
2020/12/23 06:03:46;;;;;;;1.60;1.05;;;9.50;77.00;;;;;;5132912;27;20027;-44
2020/12/23 06:06:12;;;;;;;1.45;1.15;;;9.50;77.10;;;;;;5104013;28;20048;-43
2020/12/23 06:08:39;;;;;;;1.50;1.10;;;9.40;77.00;;;;;;5106375;28;20050;-43
2020/12/23 06:11:26;;;;;;;1.80;1.10;;;9.50;77.10;;;;;;5106196;28;20044;-43
2020/12/23 06:14:11;;;;;;;3.53;1.00;;;9.40;77.00;;;;;;5144321;27;20036;-43
2020/12/23 06:16:48;;;;;;;1.08;0.90;;;9.40;77.10;;;;;;5146939;27;20027;-44
2020/12/23 06:19:36;;;;;;;1.42;1.08;;;9.40;77.10;;;;;;5141923;27;20028;-44
2020/12/23 06:22:04;;;;;;;1.10;0.80;;;9.40;77.10;;;;;;5126566;28;20051;-43
2020/12/23 06:24:30;;;;;;;1.33;1.00;;;9.40;77.10;;;;;;5126385;28;20272;-43
2020/12/23 06:26:59;;;;;;;1.77;1.30;;;9.30;77.00;;;;;;5126024;28;20073;-43
2020/12/23 06:29:28;;;;;;;2.20;0.90;;;9.40;77.10;;;;;;5126435;28;20027;-43
2020/12/23 06:32:01;;;;;;;1.73;1.08;;;9.30;77.10;;;;;;5127444;27;20031;-43
2020/12/23 06:34:29;;;;;;;2.22;0.98;;;9.30;77.10;;;;;;5146740;27;20046;-43
2020/12/23 06:36:55;;;;;;;1.77;1.20;;;9.30;77.10;;;;;;5135714;27;20032;-43
2020/12/23 06:39:32;;;;;;;1.20;0.88;;;9.30;77.20;;;;;;5107901;28;20020;-44
2020/12/23 06:42:18;;;;;;;5.35;1.42;;;9.30;77.20;;;;;;5126065;28;20035;-43
2020/12/23 06:44:44;;;;;;;2.10;1.20;;;9.20;77.10;;;;;;5113854;27;20028;-43
2020/12/23 06:47:24;;;;;;;1.27;0.80;;;9.30;77.10;;;;;;5125915;28;20035;-43
2020/12/23 06:49:55;;;;;;;1.42;1.00;;;9.20;77.10;;;;;;5136104;27;20027;-43
2020/12/23 06:52:24;;;;;;;1.35;1.00;;;9.20;77.10;;;;;;5128400;27;20023;-43
2020/12/23 06:55:01;;;;;;;2.10;1.13;;;9.20;77.20;;;;;;5146150;27;20038;-43
2020/12/23 06:57:39;;;;;;;2.17;1.23;;;9.20;77.10;;;;;;5146309;27;20034;-43
2020/12/23 07:00:21;;;;;;;1.63;1.30;;;9.20;77.10;;;;;;5143184;27;20086;-43
2020/12/23 07:02:51;;;;;;;2.65;1.42;;;9.10;77.10;;;;;;5137815;27;20057;-43
2020/12/23 07:05:23;;;;;;;1.60;1.20;;;9.10;77.20;;;;;;5125728;28;20476;-43
2020/12/23 07:08:16;;;;;;;2.15;1.15;;;9.10;77.20;;;;;;5106925;28;20108;-43
2020/12/23 07:10:51;;;;;;;1.33;0.90;;;9.10;77.20;;;;;;5085182;28;20036;-43
2020/12/23 07:13:21;;;;;;;3.03;1.30;;;9.10;77.30;;;;;;5104773;28;20102;-43
2020/12/23 07:15:50;;;;;;;1.88;1.20;;;9.10;77.30;;;;;;5105198;28;20057;-43
2020/12/23 07:18:17;;;;;;;3.20;1.48;;;9.10;77.20;;;;;;5104852;28;20031;-43
2020/12/23 07:21:02;;;;;;;2.00;1.30;;;9.00;77.20;;;;;;5140195;27;20137;-43
2020/12/23 07:23:31;;;;;;;1.67;1.23;;;9.00;77.20;;;;;;5145709;27;20027;-44
2020/12/23 07:25:59;;;;;;;2.78;1.30;;;9.00;77.30;;;;;;5145907;27;20023;-43
2020/12/23 07:28:39;;;;;;;2.22;1.40;;;9.00;77.20;;;;;;5146073;27;20056;-43
2020/12/23 07:31:06;;;;;;;2.15;1.38;;;9.00;77.30;;;;;;5145995;27;20032;-43
2020/12/23 07:33:33;;;;;;;1.75;1.38;;;9.00;77.30;;;;;;5130506;27;20042;-43
2020/12/23 07:36:00;;;;;;;1.90;1.30;;;9.00;77.30;;;;;;5125174;28;20155;-43
2020/12/23 07:38:31;;;;;;;2.42;1.40;;;9.00;77.30;;;;;;5125234;28;20724;-43
2020/12/23 07:40:58;;;;;;;2.90;1.67;;;8.90;77.30;;;;;;5124948;28;20030;-43
2020/12/23 07:43:25;;;;;;;3.20;1.58;;;8.90;77.30;;;;;;5125125;28;20036;-43
2020/12/23 07:45:51;;;;;;;2.45;1.60;;;8.90;77.20;;;;;;5124937;28;20020;-44
2020/12/23 07:48:22;;;;;;;2.47;1.70;;;8.90;77.30;;;;;;5124691;28;20038;-43
2020/12/23 07:50:55;;;;;;;2.35;1.60;;;8.90;77.30;;;;;;5137020;27;20026;-43
2020/12/23 07:53:28;;;;;;;2.53;1.70;;;8.90;77.30;;;;;;5124883;28;20543;-43
2020/12/23 07:56:02;;;;;;;3.72;1.55;;;8.90;77.30;;;;;;5124512;28;20035;-43
2020/12/23 07:58:31;;;;;;;1.92;1.33;;;8.80;77.30;;;;;;5124713;28;20458;-43
2020/12/23 08:00:58;;;;;;;4.03;1.75;;;8.80;77.30;;;;;;5124648;28;20037;-43
2020/12/23 08:03:28;;;;;;;2.13;1.50;;;8.80;77.40;;;;;;5124392;28;20091;-44
2020/12/23 08:06:04;;;;;;;2.53;1.50;;;8.80;77.40;;;;;;5127552;27;20027;-43
2020/12/23 08:08:30;;;;;;;3.22;1.73;;;8.80;77.40;;;;;;5106229;28;20035;-43
2020/12/23 08:10:56;;;;;;;2.60;1.73;;;8.80;77.30;;;;;;5124594;28;20028;-43
2020/12/23 08:13:27;;;;;;;3.00;1.95;;;8.80;77.50;;;;;;5124410;28;20039;-43
2020/12/23 08:16:07;;;;;;;3.40;2.00;;;8.80;77.40;;;;;;5123972;28;20035;-43
2020/12/23 08:18:33;;;;;;;3.80;1.95;;;8.70;77.30;;;;;;5124474;28;20023;-43
2020/12/23 08:21:09;;;;;;;2.87;1.93;;;8.70;77.40;;;;;;5143967;27;20045;-45
2020/12/23 08:23:35;;;;;;;3.35;1.88;;;8.70;77.40;;;;;;5144875;27;20023;-43
2020/12/23 08:26:02;;;;;;;3.63;2.30;;;8.70;77.50;;;;;;5144470;27;20019;-43
2020/12/23 08:28:29;;;;;;;3.60;2.00;;;8.70;77.50;;;;;;5126386;27;20019;-43
2020/12/23 08:30:55;;;;;;;3.25;2.10;;;8.70;77.50;;;;;;5126408;27;20041;-43
2020/12/23 08:33:21;;;;;;;2.80;1.83;;;8.70;77.50;;;;;;5095993;28;20110;-43
2020/12/23 08:35:48;;;;;;;3.15;2.00;;;8.70;77.40;;;;;;5105718;28;20035;-43
2020/12/23 08:38:21;;;;;;;2.53;1.90;;;8.60;77.30;;;;;;5088961;28;20016;-43
2020/12/23 08:40:57;;;;;;;3.95;2.20;;;8.60;77.30;;;;;;5123916;28;20031;-43
2020/12/23 08:43:25;;;;;;;3.22;1.83;;;8.60;77.40;;;;;;5125133;27;20102;-43
2020/12/23 08:45:51;;;;;;;4.38;2.33;;;8.60;77.40;;;;;;5124674;27;20055;-44
2020/12/23 08:48:18;;;;;;;3.90;2.25;;;8.60;77.50;;;;;;5123871;28;20749;-43
2020/12/23 08:50:58;;;;;;;3.95;1.92;;;8.50;77.40;;;;;;5141669;27;20039;-43
2020/12/23 08:53:32;;;;;;;3.67;2.28;;;8.50;77.40;;;;;;5126017;27;20733;-43
2020/12/23 08:55:59;;;;;;;5.53;1.90;;;8.50;77.40;;;;;;5143734;27;20020;-43
2020/12/23 08:58:25;;;;;;;3.78;2.33;;;8.50;77.40;;;;;;5126135;27;20027;-43
2020/12/23 09:01:01;;;;;;;5.05;2.40;;;8.50;77.50;;;;;;5125845;27;20027;-43
2020/12/23 09:03:28;;;;;;;4.32;2.10;;;8.50;77.50;;;;;;5129922;27;20480;-43
2020/12/23 09:05:58;;;;;;;3.20;2.20;;;8.50;77.60;;;;;;5121309;28;20030;-43
2020/12/23 09:08:25;;;;;;;3.47;2.08;;;8.50;77.50;;;;;;5118229;28;20698;-43
2020/12/23 09:10:51;;;;;;;;;;;8.50;77.50;;;;;;5124165;28;20043;-43
2020/12/23 09:13:17;;;;;;;2.95;2.00;;;8.40;77.50;;;;;;5123540;28;19911;-43
2020/12/23 09:15:52;;;;;;;4.68;2.28;;;8.40;77.50;;;;;;5123134;28;20099;-43
2020/12/23 09:18:18;;;;;;;3.22;2.38;;;8.40;77.40;;;;;;5123472;28;20032;-43
2020/12/23 09:20:44;;;;;;;2.20;1.63;;;8.40;77.60;;;;;;5141206;28;20692;-43
2020/12/23 09:23:11;;;;;;;3.75;2.30;;;8.40;77.60;;;;;;5144094;28;20086;-43
2020/12/23 09:25:37;;;;;;;3.70;1.90;;;8.40;77.60;;;;;;5143878;28;20019;-43
2020/12/23 09:28:14;;;;;;;4.75;2.30;;;8.40;77.60;;;;;;5144091;28;20655;-43
2020/12/23 09:30:52;;;;;;;3.08;2.42;;;8.40;77.60;;;;;;5144190;28;20051;-43
2020/12/23 09:33:22;;;;;;;3.88;2.45;;;8.30;77.50;;;;;;5130651;28;20036;-43
2020/12/23 09:35:49;;;;;;;3.28;2.05;;;8.30;77.50;;;;;;5121578;28;20047;-43
2020/12/23 09:38:17;;;;;;;;;;;8.30;77.60;;;;;;5103421;28;20016;-43
2020/12/23 09:40:49;;;;;;;3.47;2.05;;;8.30;77.60;;;;;;5113492;28;19903;-43
2020/12/23 09:43:19;;;;;;;3.88;2.30;;;8.30;77.60;;;;;;5123289;28;20038;-43
2020/12/23 09:45:49;;;;;;;4.07;2.30;;;8.30;77.60;;;;;;5123174;28;20032;-43
2020/12/23 09:48:16;;;;;;;3.72;2.20;;;8.20;77.60;;;;;;5123148;28;20030;-43
2020/12/23 09:50:42;;;;;;;4.25;2.67;;;8.20;77.70;;;;;;5104992;28;20024;-44
2020/12/23 09:53:09;;;;;;;3.75;2.25;;;8.20;77.60;;;;;;5123238;28;20030;-43
2020/12/23 09:55:35;;;;;;;4.97;2.65;;;8.20;77.70;;;;;;5104851;28;20023;-43
2020/12/23 09:58:02;;;;;;;4.70;2.53;;;8.20;77.60;;;;;;5123331;28;20028;-44
2020/12/23 10:00:28;;;;;;;4.30;2.70;;;8.20;77.70;;;;;;5123054;28;20031;-43
2020/12/23 10:02:54;;;;;;;4.15;2.13;;;8.20;77.70;;;;;;5123354;28;20041;-43
2020/12/23 10:05:21;;;;;;;6.23;2.83;;;8.20;77.70;;;;;;5126528;28;20080;-43
2020/12/23 10:07:47;;;;;;;4.85;2.42;;;8.10;77.70;;;;;;5122784;28;20264;-43
2020/12/23 10:10:13;;;;;;;3.67;2.05;;;8.10;77.80;;;;;;5122982;28;20032;-42
2020/12/23 10:12:39;;;;;;;4.85;2.65;;;8.10;77.70;;;;;;5123031;28;20030;-43
2020/12/23 10:15:06;;;;;;;5.53;2.80;;;8.10;77.70;;;;;;5123144;28;20039;-43
2020/12/23 10:17:33;;;;;;;3.63;2.80;;;8.10;77.70;;;;;;5123052;28;20032;-43
2020/12/23 10:19:59;;;;;;;4.63;2.80;;;8.10;77.80;;;;;;5133960;28;20043;-43
2020/12/23 10:22:26;;;;;;;5.20;3.07;;;8.10;77.70;;;;;;5143824;28;20226;-43
2020/12/23 10:24:52;;;;;;;5.72;3.40;;;8.10;77.70;;;;;;5143662;28;20030;-43
2020/12/23 10:27:18;;;;;;;4.90;2.70;;;8.00;77.70;;;;;;5143253;27;20027;-43
2020/12/23 10:29:44;;;;;;;5.22;2.85;;;8.00;77.80;;;;;;5147025;27;20782;-44
2020/12/23 10:32:10;;;;;;;5.47;2.58;;;8.00;77.90;;;;;;5143883;27;20031;-44
2020/12/23 10:34:37;;;;;;;5.45;2.75;;;8.00;77.80;;;;;;5126250;28;20043;-43
2020/12/23 10:37:03;;;;;;;5.78;3.10;;;8.00;77.80;;;;;;5126323;28;20043;-43
2020/12/23 10:39:30;;;;;;;5.03;2.83;;;8.00;77.80;;;;;;5126635;28;20027;-43
2020/12/23 10:41:56;;;;;;;4.35;2.80;;;8.00;77.80;;;;;;5142585;27;20024;-43
2020/12/23 10:44:22;;;;;;;3.72;2.78;;;8.00;77.80;;;;;;5126014;28;20027;-43
2020/12/23 10:46:56;;;;;;;6.88;2.72;;;7.90;77.80;;;;;;5125996;28;20114;-43
2020/12/23 10:49:25;;;;;;;5.30;2.95;;;7.90;77.90;;;;;;5132340;27;20035;-43
2020/12/23 10:51:56;;;;;;;5.60;2.60;;;7.90;77.80;;;;;;5146895;27;20056;-43
2020/12/23 10:54:23;;;;;;;5.18;2.97;;;7.90;77.80;;;;;;5146808;27;20098;-43
2020/12/23 10:56:50;;;;;;;4.53;2.67;;;7.90;77.80;;;;;;5146405;27;20049;-43
2020/12/23 10:59:16;;;;;;;5.80;2.75;;;7.90;77.80;;;;;;5146789;27;20076;-43
2020/12/23 11:01:42;;;;;;;4.65;2.75;;;7.90;77.80;;;;;;5146836;27;20125;-43
2020/12/23 11:04:08;;;;;;;4.43;2.67;;;7.90;77.90;;;;;;5126275;27;20038;-43
2020/12/23 11:06:34;;;;;;;4.15;2.65;;;7.90;77.90;;;;;;5126713;27;20026;-43
2020/12/23 11:09:03;;;;;;;4.22;2.78;;;7.80;77.80;;;;;;5126073;28;20031;-43
2020/12/23 11:11:29;;;;;;;5.25;2.90;;;7.80;77.90;;;;;;5125810;28;21383;-43
2020/12/23 11:13:55;;;;;;;4.72;2.80;;;7.80;78.00;;;;;;5125683;28;20043;-42
2020/12/23 11:16:21;;;;;;;4.22;2.88;;;7.80;77.80;;;;;;5126027;28;20035;-42
2020/12/23 11:18:47;;;;;;;5.03;2.90;;;7.80;77.90;;;;;;5126491;27;20020;-43
2020/12/23 11:21:14;;;;;;;5.93;3.03;;;7.80;77.90;;;;;;5146281;27;20069;-43
2020/12/23 11:23:41;;;;;;;4.30;2.45;;;7.80;77.90;;;;;;5127936;27;20033;-43
2020/12/23 11:26:34;;;;;;;3.63;2.63;;;7.70;77.80;;;;;;5146040;27;20039;-43
2020/12/23 11:29:00;;;;;;;4.85;2.75;;;7.70;77.80;;;;;;5142235;27;20170;-43
2020/12/23 11:31:26;;;;;;;5.93;2.65;;;7.70;77.80;;;;;;5146253;27;20118;-43
2020/12/23 11:33:53;;;;;;;5.35;2.70;;;7.70;77.90;;;;;;5128181;27;20044;-43
2020/12/23 11:36:19;;;;;;;4.25;2.70;;;7.70;77.90;;;;;;5125388;28;20024;-42
2020/12/23 11:38:45;;;;;;;3.88;2.70;;;7.70;77.90;;;;;;5124952;28;20027;-43
2020/12/23 11:41:11;;;;;;;4.13;2.78;;;7.70;77.90;;;;;;5125308;28;20024;-43
2020/12/23 11:43:37;;;;;;;4.35;2.92;;;7.70;77.90;;;;;;5119944;28;20027;-43
2020/12/23 11:46:07;;;;;;;4.28;2.22;;;7.70;77.90;;;;;;5125181;28;20035;-43
2020/12/23 11:48:34;;;;;;;3.70;2.50;;;7.60;77.90;;;;;;5125029;28;20610;-43
2020/12/23 11:51:00;;;;;;;5.22;2.97;;;7.60;77.90;;;;;;5145140;27;20077;-43
2020/12/23 11:53:26;;;;;;;3.75;2.60;;;7.60;77.90;;;;;;5145674;27;20031;-42
2020/12/23 11:55:53;;;;;;;4.25;2.78;;;7.60;77.90;;;;;;5127126;27;20088;-43
2020/12/23 11:58:19;;;;;;;4.00;2.72;;;7.60;78.00;;;;;;5145350;27;20019;-43
2020/12/23 12:00:45;;;;;;;4.18;2.47;;;7.60;78.00;;;;;;5145640;27;20579;-42
2020/12/23 12:03:12;;;;;;;3.78;2.40;;;7.60;78.00;;;;;;5134209;27;20038;-43
2020/12/23 12:05:38;;;;;;;5.35;2.70;;;7.60;77.90;;;;;;5141049;27;20049;-42
2020/12/23 12:08:07;;;;;;;3.58;2.50;;;7.60;77.90;;;;;;5104199;28;20032;-44
2020/12/23 12:10:33;;;;;;;4.55;2.40;;;7.60;78.00;;;;;;5104445;28;20028;-43
2020/12/23 12:13:00;;;;;;;4.25;2.75;;;7.50;78.70;;;;;;5104217;28;20042;-44
2020/12/23 12:15:27;;;;;;;5.35;2.72;;;7.60;78.00;;;;;;5104385;28;20046;-43
2020/12/23 12:17:53;;;;;;;5.33;2.63;;;7.50;77.90;;;;;;5104193;28;20032;-43
2020/12/23 12:20:19;;;;;;;4.10;2.33;;;7.50;78.00;;;;;;5131954;27;20043;-43
2020/12/23 12:22:46;;;;;;;4.72;2.55;;;7.50;78.00;;;;;;5145308;27;20019;-42
2020/12/23 12:25:15;;;;;;;3.90;2.35;;;7.50;78.00;;;;;;5145240;27;20026;-43
2020/12/23 12:27:42;;;;;;;3.78;2.55;;;7.50;78.00;;;;;;5126587;27;20897;-43
2020/12/23 12:30:08;;;;;;;4.47;2.42;;;7.50;78.00;;;;;;5126813;27;20057;-42
2020/12/23 12:32:34;;;;;;;3.35;2.28;;;7.50;78.00;;;;;;5138306;27;20703;-42
2020/12/23 12:35:00;;;;;;;3.38;2.17;;;7.40;78.00;;;;;;5124157;28;20099;-43
2020/12/23 12:37:30;;;;;;;5.57;2.63;;;7.40;77.90;;;;;;5124437;28;20042;-44
2020/12/23 12:39:56;;;;;;;3.50;2.50;;;7.40;78.00;;;;;;5124069;28;20030;-43
2020/12/23 12:42:22;;;;;;;4.05;2.53;;;7.40;78.00;;;;;;5124213;28;20026;-42
2020/12/23 12:44:48;;;;;;;5.32;2.60;;;7.40;77.90;;;;;;5124094;28;20107;-42
2020/12/23 12:47:14;;;;;;;4.00;2.35;;;7.40;78.00;;;;;;5131925;27;20015;-42
2020/12/23 12:49:40;;;;;;;3.20;2.00;;;7.40;78.00;;;;;;5138190;27;20023;-42
2020/12/23 12:52:06;;;;;;;4.28;2.47;;;7.40;78.00;;;;;;5126895;27;20028;-42
2020/12/23 12:54:33;;;;;;;3.83;2.15;;;7.40;78.10;;;;;;5123943;28;20036;-43
2020/12/23 12:56:59;;;;;;;3.58;2.40;;;7.40;78.10;;;;;;5123918;28;20054;-43
2020/12/23 12:59:26;;;;;;;4.75;2.30;;;7.40;78.10;;;;;;5123761;28;20035;-43